Flugplatz Schwäbisch Hall-Weckrieden

Für EDTX sind keine METAR/TAF Berichte vorhanden.
Es werden die Flugwettermeldungen vom Flugplatz Adolf Würth in 0 km Entfernung angezeigt.

Bericht für EDTY

vom 18.01. um 16:20 UTC

Wind 9 kt aus 250°

Sichtweite 10 km oder mehr

gering bewölkt in 1300 ft

bedeckt in 1700 ft

Temperatur 2.0°C

Taupunkt -1.0°C

Luftfeuchtigkeit 80%

Luftdruck 1023 hPa

EDTY 181620Z 25009KT 9999 FEW013 OVC017 02/M01 Q1023

Prognose für EDTY

vom 18.01. um 14:00 UTC

Zwischen 15:00 UTC und 00:00 UTC

Wind 8 kt aus 240°

Sichtweite 10 km oder mehr

bedeckt in 800 ft


Zwischen 15:00 und 18:00 UTC übergehend zu

Wind 8 kt aus 240°

Sichtweite 10 km oder mehr

aufgelockert bewölkt in 800 ft

aufgebrochene Bewölkung in 2000 ft

TAF EDTY 181400Z 1815/1824 24008KT 9999 OVC008 BECMG 1815/1818 SCT008 BKN020
Impressum